OEKJ

Al Kharj AB

Al Kharj, Saudi Arabia
OEKJ 151100Z 1512/1618 35010KT CAVOK BECMG 1520/1522 VRB03KT
Issued Valid From Valid To
Aug-15 @ 11:00 UTC
(2 hours ago)
Aug-15 @ 12:00 UTC
(41 minutes ago)
Aug-16 @ 18:00 UTC
(-1 days ago)
Aug-15 @ 12:00 to Aug-15 @ 20:00
OEKJ 151100Z 1512/1618 35010KT CAVOK
Wind Visibility Clouds Conditions
350° at 10 knots 10,000+ meters
  • No significant clouds
Becoming Aug-15 @ 20:00 to Aug-16 @ 18:00
BECMG 1520/1522 VRB03KT
Wind Visibility Clouds Conditions
Variable at 3 knots 10,000+ meters
  • No significant clouds
OEKJ 151100Z 1512/1618 35010KT CAVOK BECMG 1520/1522 VRB03KT
Issued Aug-15 @ 11:00 UTC
(2 hours ago)
Valid From Aug-15 @ 12:00 UTC
(41 minutes ago)
Valid To Aug-16 @ 18:00 UTC
(-1 days ago)
Aug-15 @ 12:00 - Aug-15 @ 20:00
Wind Visibility
350° at 10 knots 10,000+ meters
Clouds
  • No significant clouds
Conditions
Becoming Aug-15 @ 20:00 - Aug-16 @ 18:00
Wind Visibility
Variable at 3 knots 10,000+ meters
Clouds
  • No significant clouds
Conditions